Time;durP1;ratioP1;P1;durP2;ratioP2;P2;SDS_P1;SDS_P2;PMS_P1;PMS_P2;Temp;Humidity;BMP_temperature;BMP_pressure;BME280_temperature;BME280_humidity;BME280_pressure;Samples;Min_cycle;Max_cycle;Signal;HPM_P1;HPM_P2
2023/03/23 00:01:53;;;;;;;1.88;0.60;;;;;;;14.36;85.61;99596.53;5047148;28;20031;-52
2023/03/23 00:04:20;;;;;;;2.97;0.82;;;;;;;14.41;86.04;99598.78;5043318;28;20033;-46
2023/03/23 00:06:46;;;;;;;1.60;0.88;;;;;;;14.26;86.97;99598.19;5049863;28;20060;-48
2023/03/23 00:09:14;;;;;;;1.35;0.70;;;;;;;14.19;87.85;99606.38;5045842;28;20033;-44
2023/03/23 00:11:41;;;;;;;2.45;0.82;;;;;;;14.02;89.45;99603.84;5033609;28;20044;-53
2023/03/23 00:14:13;;;;;;;0.77;0.60;;;;;;;14.00;89.96;99604.25;5050747;28;20079;-45
2023/03/23 00:16:40;;;;;;;;;;;;;;;13.97;90.67;99594.25;5049472;28;20029;-46
2023/03/23 00:19:13;;;;;;;0.88;0.63;;;;;;;14.13;90.41;99597.16;5050745;28;19965;-50
2023/03/23 00:21:41;;;;;;;0.73;0.63;;;;;;;14.03;91.42;99591.88;5050297;28;20078;-50
2023/03/23 00:24:15;;;;;;;0.73;0.70;;;;;;;14.03;91.03;99595.31;5048814;28;20501;-45
2023/03/23 00:26:43;;;;;;;2.20;0.77;;;;;;;13.97;91.91;99591.53;5028723;28;20091;-45
2023/03/23 00:29:21;;;;;;;1.95;0.93;;;;;;;13.75;93.08;99602.97;5045528;28;20040;-45
2023/03/23 00:31:50;;;;;;;1.45;0.88;;;;;;;13.77;93.93;99593.28;5050149;28;20124;-44
2023/03/23 00:34:21;;;;;;;1.52;0.82;;;;;;;13.82;94.11;99581.28;5043605;28;20040;-48
2023/03/23 00:36:56;;;;;;;1.13;0.73;;;;;;;13.87;94.07;99583.53;5048782;28;20040;-45
2023/03/23 00:39:25;;;;;;;1.20;0.98;;;;;;;13.74;94.96;99585.22;5043170;28;20048;-50
2023/03/23 00:42:00;;;;;;;1.80;0.85;;;;;;;13.78;94.89;99588.66;5032443;28;20032;-46
2023/03/23 00:44:28;;;;;;;1.02;0.80;;;;;;;13.78;94.98;99586.69;5044698;28;20435;-48
2023/03/23 00:46:56;;;;;;;2.92;0.93;;;;;;;13.73;95.17;99594.47;5036197;28;20041;-49
2023/03/23 00:49:26;;;;;;;2.25;1.20;;;;;;;13.62;96.62;99583.00;5031989;28;20036;-45
2023/03/23 00:51:55;;;;;;;1.90;1.08;;;;;;;13.60;96.77;99578.00;5030620;28;20035;-47
2023/03/23 00:54:21;;;;;;;1.33;0.68;;;;;;;13.50;98.21;99585.06;5031440;28;20080;-52
2023/03/23 00:56:49;;;;;;;0.82;0.73;;;;;;;13.33;98.88;99572.47;5049291;28;20127;-51
2023/03/23 00:59:15;;;;;;;1.73;0.98;;;;;;;13.47;98.92;99574.25;5028623;28;20027;-47
2023/03/23 01:01:41;;;;;;;1.58;0.80;;;;;;;13.31;98.89;99552.38;5039305;28;20110;-56
2023/03/23 01:04:07;;;;;;;1.40;0.63;;;;;;;13.42;98.88;99543.00;5012229;28;20120;-48
2023/03/23 01:06:40;;;;;;;1.63;0.98;;;;;;;13.06;100.00;99522.84;5039640;28;20287;-44
2023/03/23 01:09:14;;;;;;;1.65;0.80;;;;;;;12.93;100.00;99510.19;5049019;28;20040;-44
2023/03/23 01:11:40;;;;;;;2.40;1.40;;;;;;;13.23;100.00;99515.75;5047724;28;20029;-45
2023/03/23 01:14:06;;;;;;;2.63;1.73;;;;;;;13.24;100.00;99522.72;5049309;28;20036;-45
2023/03/23 01:16:32;;;;;;;1.88;1.08;;;;;;;13.31;100.00;99519.94;5028500;28;20523;-49
2023/03/23 01:18:57;;;;;;;1.73;0.60;;;;;;;13.13;100.00;99516.59;5048843;28;20395;-52
2023/03/23 01:21:24;;;;;;;1.73;1.15;;;;;;;13.05;100.00;99515.13;5031250;28;20028;-44
2023/03/23 01:23:50;;;;;;;1.42;0.63;;;;;;;13.23;100.00;99502.22;5045633;28;20029;-45
2023/03/23 01:26:22;;;;;;;4.15;2.35;;;;;;;13.29;100.00;99497.94;5037475;28;20404;-51
2023/03/23 01:28:48;;;;;;;3.35;1.15;;;;;;;13.13;100.00;99492.28;5033330;28;20124;-54
2023/03/23 01:31:16;;;;;;;2.15;1.00;;;;;;;12.81;100.00;99475.56;5046599;28;20043;-49
2023/03/23 01:33:43;;;;;;;1.38;0.75;;;;;;;12.95;100.00;99465.38;5046218;28;20488;-47
2023/03/23 01:36:14;;;;;;;3.83;0.82;;;;;;;13.11;100.00;99464.88;5038448;28;20043;-44
2023/03/23 01:38:43;;;;;;;1.05;0.80;;;;;;;13.24;100.00;99482.16;5029689;28;20028;-50
2023/03/23 01:41:10;;;;;;;1.42;0.98;;;;;;;13.35;100.00;99482.81;5025876;28;20438;-45
2023/03/23 01:43:36;;;;;;;1.33;0.90;;;;;;;13.42;99.61;99485.44;5030433;28;20119;-44
2023/03/23 01:46:02;;;;;;;1.50;1.00;;;;;;;13.19;100.00;99479.88;5045017;28;20123;-44
2023/03/23 01:48:35;;;;;;;1.33;0.85;;;;;;;13.26;100.00;99466.28;5044228;28;20108;-50
2023/03/23 01:51:08;;;;;;;1.88;1.00;;;;;;;13.21;100.00;99472.91;5040003;28;20033;-45
2023/03/23 01:53:40;;;;;;;4.47;1.02;;;;;;;13.21;100.00;99469.44;5029694;28;20029;-44
2023/03/23 01:56:11;;;;;;;1.35;0.70;;;;;;;12.97;100.00;99465.00;5013016;28;20088;-44
2023/03/23 01:58:38;;;;;;;1.55;1.05;;;;;;;13.07;100.00;99461.44;5035584;28;20025;-43
2023/03/23 02:01:08;;;;;;;1.10;0.88;;;;;;;12.97;100.00;99459.59;5024404;28;20510;-47
2023/03/23 02:03:35;;;;;;;1.67;1.08;;;;;;;13.14;100.00;99459.44;5020199;28;20033;-45
2023/03/23 02:06:02;;;;;;;1.30;0.90;;;;;;;13.15;100.00;99455.56;5028322;28;20037;-51
2023/03/23 02:08:59;;;;;;;1.30;0.80;;;;;;;13.13;100.00;99457.13;5035300;28;20072;-48
2023/03/23 02:11:25;;;;;;;1.60;0.93;;;;;;;13.23;100.00;99453.56;5027818;28;20518;-52
2023/03/23 02:13:51;;;;;;;2.72;0.98;;;;;;;13.00;100.00;99450.69;5021084;28;20495;-44
2023/03/23 02:16:21;;;;;;;1.77;1.02;;;;;;;13.04;100.00;99446.03;5031003;28;20061;-44
2023/03/23 02:19:07;;;;;;;0.90;0.80;;;;;;;13.12;100.00;99447.50;5024347;28;20395;-44
2023/03/23 02:21:38;;;;;;;0.63;0.57;;;;;;;13.08;100.00;99449.47;4990895;28;20108;-44
2023/03/23 02:24:49;;;;;;;1.45;0.73;;;;;;;13.08;100.00;99449.47;5044806;28;20116;-55
2023/03/23 02:27:24;;;;;;;2.72;1.33;;;;;;;13.12;100.00;99444.81;4999704;28;20491;-44
2023/03/23 02:30:08;;;;;;;1.80;1.10;;;;;;;12.96;100.00;99452.63;5029002;28;20051;-44
2023/03/23 02:32:40;;;;;;;0.93;0.77;;;;;;;12.97;100.00;99425.22;5023985;28;20065;-50
2023/03/23 02:35:16;;;;;;;2.30;0.90;;;;;;;13.19;100.00;99442.78;5035470;28;20025;-44
2023/03/23 02:37:58;;;;;;;2.22;1.15;;;;;;;13.16;100.00;99435.47;5038611;28;20078;-51
2023/03/23 02:40:46;;;;;;;1.85;0.90;;;;;;;13.16;100.00;99440.13;5033961;28;20037;-57
2023/03/23 02:43:19;;;;;;;1.90;1.10;;;;;;;13.24;100.00;99431.53;5029954;28;20052;-47
2023/03/23 02:45:46;;;;;;;0.90;0.60;;;;;;;13.26;100.00;99441.94;5045599;28;20095;-47
2023/03/23 02:48:15;;;;;;;1.42;0.88;;;;;;;13.21;100.00;99426.16;5041339;28;20025;-43
2023/03/23 02:50:45;;;;;;;1.08;0.77;;;;;;;13.18;100.00;99427.72;5021486;28;20040;-54
2023/03/23 02:53:15;;;;;;;1.70;0.87;;;;;;;13.08;100.00;99417.81;5035109;28;20111;-49
2023/03/23 02:55:43;;;;;;;1.25;0.95;;;;;;;13.10;100.00;99417.41;5035353;28;20037;-53
2023/03/23 02:58:13;;;;;;;2.15;1.27;;;;;;;13.09;100.00;99410.44;5040030;28;20033;-54
2023/03/23 03:00:41;;;;;;;2.13;1.17;;;;;;;13.43;100.00;99419.38;5029392;28;20523;-54
2023/03/23 03:03:13;;;;;;;7.40;1.15;;;;;;;13.34;100.00;99413.66;5048703;28;20021;-44
2023/03/23 03:05:46;;;;;;;1.83;1.02;;;;;;;13.38;100.00;99412.47;5035276;28;20037;-45
2023/03/23 03:08:13;;;;;;;1.38;0.98;;;;;;;13.29;100.00;99411.41;5027846;28;20063;-50
2023/03/23 03:11:01;;;;;;;1.30;1.15;;;;;;;13.37;100.00;99389.31;5033909;28;20087;-55
2023/03/23 03:13:43;;;;;;;3.83;1.35;;;;;;;13.43;100.00;99390.38;5025109;28;20029;-48
2023/03/23 03:16:17;;;;;;;0.70;0.70;;;;;;;13.46;100.00;99400.41;5033136;28;20044;-44
2023/03/23 03:18:55;;;;;;;2.05;1.17;;;;;;;13.23;100.00;99399.50;5027022;28;20029;-48
2023/03/23 03:21:27;;;;;;;1.98;1.10;;;;;;;13.43;100.00;99408.56;5025478;28;20129;-47
2023/03/23 03:23:58;;;;;;;0.60;0.60;;;;;;;13.39;100.00;99394.31;5019335;28;20032;-48
2023/03/23 03:26:27;;;;;;;2.95;0.90;;;;;;;13.43;100.00;99390.38;5027719;28;20025;-51
2023/03/23 03:28:58;;;;;;;1.83;1.23;;;;;;;13.31;100.00;99377.41;5034861;28;20107;-46
2023/03/23 03:31:29;;;;;;;1.95;1.10;;;;;;;13.33;100.00;99376.97;5030417;28;20029;-44
2023/03/23 03:33:55;;;;;;;2.72;1.33;;;;;;;13.35;100.00;99353.78;5028977;28;20518;-50
2023/03/23 03:36:25;;;;;;;1.10;0.80;;;;;;;13.29;100.00;99346.50;5031771;28;20106;-52
2023/03/23 03:38:52;;;;;;;1.63;1.15;;;;;;;13.38;100.00;99357.59;5032167;28;20039;-51
2023/03/23 03:41:20;;;;;;;1.27;0.98;;;;;;;13.47;100.00;99374.13;5027783;28;20044;-53
2023/03/23 03:43:46;;;;;;;1.63;1.10;;;;;;;13.43;100.00;99368.00;5047303;28;20128;-50
2023/03/23 03:46:12;;;;;;;2.28;1.20;;;;;;;13.47;100.00;99342.41;5028557;28;20108;-50
2023/03/23 03:48:41;;;;;;;2.50;1.73;;;;;;;13.44;100.00;99335.13;5027071;28;20044;-46
2023/03/23 03:51:06;;;;;;;1.38;1.20;;;;;;;13.27;100.00;99343.44;5047033;28;20033;-46
2023/03/23 03:53:38;;;;;;;1.95;0.85;;;;;;;13.21;100.00;99323.44;5032851;28;20488;-49
2023/03/23 03:56:05;;;;;;;1.77;0.93;;;;;;;13.12;100.00;99318.53;5019271;28;20029;-49
2023/03/23 03:58:37;;;;;;;1.90;1.20;;;;;;;13.27;100.00;99317.19;5028619;28;20039;-44
2023/03/23 04:01:22;;;;;;;1.88;0.98;;;;;;;13.17;100.00;99325.41;5035065;28;20079;-50
2023/03/23 04:03:49;;;;;;;3.70;0.90;;;;;;;13.34;100.00;99337.94;5047369;28;20033;-44
2023/03/23 04:06:27;;;;;;;1.90;1.38;;;;;;;13.18;100.00;99333.13;5033045;28;20400;-50
2023/03/23 04:08:58;;;;;;;1.15;0.73;;;;;;;13.34;100.00;99346.81;5032867;28;20041;-46
2023/03/23 04:11:26;;;;;;;1.27;1.13;;;;;;;13.36;100.00;99351.81;5032135;28;20488;-49
2023/03/23 04:13:53;;;;;;;1.95;0.90;;;;;;;13.52;100.00;99352.78;5017131;28;20041;-49
2023/03/23 04:16:21;;;;;;;1.48;1.13;;;;;;;13.53;100.00;99340.00;5027615;28;20044;-50
2023/03/23 04:18:47;;;;;;;1.38;1.10;;;;;;;13.42;100.00;99329.34;5013489;28;20026;-48
2023/03/23 04:21:15;;;;;;;1.20;0.80;;;;;;;13.45;100.00;99338.59;5042431;28;20492;-46
2023/03/23 04:23:45;;;;;;;0.85;0.82;;;;;;;13.34;100.00;99344.13;5031723;28;20390;-46
2023/03/23 04:26:12;;;;;;;1.52;1.42;;;;;;;13.34;100.00;99354.16;5031805;28;20036;-46
2023/03/23 04:28:40;;;;;;;3.10;1.63;;;;;;;13.41;100.00;99348.69;5030844;28;20446;-47
2023/03/23 04:31:29;;;;;;;2.25;1.35;;;;;;;13.51;100.00;99367.47;5020275;28;20047;-49
2023/03/23 04:34:05;;;;;;;1.90;1.27;;;;;;;13.54;100.00;99355.09;5032181;28;20029;-48
2023/03/23 04:36:37;;;;;;;1.90;1.30;;;;;;;13.42;100.00;99342.88;5030329;28;20039;-46
2023/03/23 04:39:10;;;;;;;1.25;1.10;;;;;;;13.36;100.00;99357.22;5032383;28;20036;-44
2023/03/23 04:41:37;;;;;;;2.80;1.30;;;;;;;13.38;100.00;99355.66;5032431;28;20201;-47
2023/03/23 04:44:43;;;;;;;1.40;0.90;;;;;;;13.37;100.00;99366.91;4988841;28;20124;-45
2023/03/23 04:47:12;;;;;;;;;;;;;;;13.50;100.00;99376.00;4976435;28;20027;-48
2023/03/23 04:49:46;;;;;;;1.38;1.27;;;;;;;13.34;100.00;99371.16;5001149;28;20008;-47
2023/03/23 04:52:58;;;;;;;2.05;1.15;;;;;;;13.43;100.00;99357.16;5030142;28;20041;-47
2023/03/23 04:55:25;;;;;;;2.40;1.65;;;;;;;13.52;100.00;99352.78;4954183;28;20115;-50
2023/03/23 04:57:56;;;;;;;2.60;1.70;;;;;;;13.48;100.00;99357.47;4967765;28;20049;-45
2023/03/23 05:00:50;;;;;;;2.45;1.45;;;;;;;13.57;100.00;99356.97;4943913;28;20433;-46
2023/03/23 05:03:19;;;;;;;2.75;1.65;;;;;;;13.61;100.00;99354.97;4942311;28;20031;-46
2023/03/23 05:05:47;;;;;;;3.63;1.55;;;;;;;13.66;100.00;99351.06;4959323;28;20049;-46
2023/03/23 05:08:14;;;;;;;2.25;1.63;;;;;;;13.57;100.00;99346.91;4968624;28;20034;-46
2023/03/23 05:10:41;;;;;;;2.47;1.40;;;;;;;13.56;100.00;99350.03;4949926;28;20418;-49
2023/03/23 05:13:10;;;;;;;1.60;0.98;;;;;;;13.38;100.00;99344.06;4942641;28;20508;-48
2023/03/23 05:15:36;;;;;;;1.55;1.17;;;;;;;13.43;100.00;99338.97;4958572;28;20074;-48
2023/03/23 05:18:03;;;;;;;1.92;1.30;;;;;;;13.55;100.00;99337.66;4949329;28;20073;-46
2023/03/23 05:20:30;;;;;;;3.45;1.40;;;;;;;13.70;100.00;99336.31;4959780;28;20425;-47
2023/03/23 05:23:04;;;;;;;2.35;1.50;;;;;;;13.73;100.00;99337.44;4958624;28;20035;-48
2023/03/23 05:25:40;;;;;;;3.15;1.48;;;;;;;13.69;100.00;99337.50;4967847;28;20725;-49
2023/03/23 05:28:16;;;;;;;1.75;1.50;;;;;;;13.66;100.00;99340.25;4948706;28;20041;-48
2023/03/23 05:30:50;;;;;;;1.95;1.25;;;;;;;13.65;100.00;99325.16;4959225;28;20035;-48
2023/03/23 05:33:17;;;;;;;2.35;1.33;;;;;;;13.60;100.00;99345.34;5014522;28;20048;-49
2023/03/23 05:35:56;;;;;;;1.80;1.15;;;;;;;13.70;100.00;99339.03;5034369;28;20120;-47
2023/03/23 05:38:27;;;;;;;2.92;2.08;;;;;;;13.42;100.00;99348.28;5021983;28;20033;-48
2023/03/23 05:40:54;;;;;;;1.50;1.27;;;;;;;13.66;100.00;99342.94;5027410;28;20043;-49
2023/03/23 05:43:26;;;;;;;2.78;1.45;;;;;;;13.63;100.00;99343.78;5040728;28;20025;-50
2023/03/23 05:46:06;;;;;;;3.03;1.30;;;;;;;13.42;100.00;99342.09;5019079;28;20492;-48
2023/03/23 05:48:36;;;;;;;1.45;0.93;;;;;;;13.56;100.00;99336.50;5011520;28;20111;-47
2023/03/23 05:51:04;;;;;;;1.20;0.98;;;;;;;13.45;100.00;99342.03;5020417;28;20522;-48
2023/03/23 05:53:31;;;;;;;1.25;0.70;;;;;;;13.47;100.00;99339.72;5013278;28;20029;-50
2023/03/23 05:55:59;;;;;;;1.05;0.98;;;;;;;13.56;100.00;99340.00;5026918;28;20527;-48
2023/03/23 05:58:45;;;;;;;2.47;1.05;;;;;;;13.62;100.00;99334.13;5018939;28;20030;-48
2023/03/23 06:01:13;;;;;;;3.38;0.90;;;;;;;13.62;100.00;99334.13;5030626;28;20447;-48
2023/03/23 06:03:39;;;;;;;0.80;0.80;;;;;;;13.64;100.00;99334.47;5023955;28;20031;-46
2023/03/23 06:06:25;;;;;;;1.58;0.60;;;;;;;13.61;100.00;99325.22;5006844;28;20410;-49
2023/03/23 06:09:03;;;;;;;1.80;1.10;;;;;;;13.44;100.00;99335.13;5012707;28;20026;-50
2023/03/23 06:11:40;;;;;;;3.83;1.20;;;;;;;13.31;100.00;99344.19;5015124;28;20041;-50
2023/03/23 06:14:23;;;;;;;0.98;0.60;;;;;;;13.41;100.00;99329.75;5023743;28;20064;-47
2023/03/23 06:16:50;;;;;;;2.85;1.40;;;;;;;13.46;100.00;99318.47;5020199;28;20060;-51
2023/03/23 06:19:16;;;;;;;1.23;0.65;;;;;;;13.46;100.00;99330.06;5012392;28;20025;-49
2023/03/23 06:21:51;;;;;;;1.52;0.85;;;;;;;13.51;100.00;99320.75;5015229;28;20084;-46
2023/03/23 06:24:23;;;;;;;0.70;0.63;;;;;;;13.39;100.00;99329.41;5020571;28;20028;-48
2023/03/23 06:26:49;;;;;;;0.85;0.60;;;;;;;13.52;100.00;99328.44;5025299;28;20033;-50
2023/03/23 06:29:18;;;;;;;0.82;0.50;;;;;;;13.58;99.95;99331.47;5024963;28;20025;-54
2023/03/23 06:31:52;;;;;;;1.15;0.73;;;;;;;13.54;100.00;99336.16;5021622;28;20036;-48
2023/03/23 06:34:18;;;;;;;0.55;0.55;;;;;;;13.50;99.16;99332.72;5018992;28;20032;-49
2023/03/23 06:36:47;;;;;;;1.00;0.45;;;;;;;13.47;99.44;99338.97;5050682;28;20036;-55
2023/03/23 06:39:25;;;;;;;1.63;0.80;;;;;;;13.55;99.83;99332.25;5046479;28;20376;-53
2023/03/23 06:42:17;;;;;;;;;;;;;;;13.45;99.54;99333.19;5043713;28;20369;-55
2023/03/23 06:44:48;;;;;;;0.65;0.52;;;;;;;13.63;99.05;99333.69;5031793;28;20303;-53
2023/03/23 06:47:14;;;;;;;0.88;0.50;;;;;;;13.64;98.92;99337.19;5026136;28;20033;-55
2023/03/23 06:49:45;;;;;;;1.05;0.68;;;;;;;13.57;98.27;99336.09;5032439;28;20039;-50
2023/03/23 06:52:18;;;;;;;0.65;0.30;;;;;;;13.45;99.48;99331.22;5033956;28;20033;-49
2023/03/23 06:54:44;;;;;;;1.48;0.45;;;;;;;13.36;99.09;99335.59;5041222;28;20055;-49
2023/03/23 06:57:11;;;;;;;0.40;0.40;;;;;;;13.38;98.86;99341.38;5034228;28;20028;-49
2023/03/23 06:59:37;;;;;;;1.52;0.80;;;;;;;13.36;99.58;99339.09;5048125;28;20036;-48
2023/03/23 07:02:04;;;;;;;1.23;0.60;;;;;;;13.64;97.74;99345.28;5023420;28;20388;-49
2023/03/23 07:04:32;;;;;;;1.40;0.50;;;;;;;13.74;97.32;99338.97;5020429;28;20037;-52
2023/03/23 07:07:30;;;;;;;2.05;0.80;;;;;;;13.68;96.72;99349.50;5019596;28;20033;-49
2023/03/23 07:10:11;;;;;;;2.00;0.88;;;;;;;13.72;96.89;99344.81;4950731;28;20036;-48
2023/03/23 07:12:37;;;;;;;0.85;0.60;;;;;;;13.74;97.14;99353.28;4958927;28;20050;-53
2023/03/23 07:15:05;;;;;;;1.65;1.08;;;;;;;13.82;96.78;99341.16;4960460;28;20034;-50
2023/03/23 07:17:34;;;;;;;0.55;0.55;;;;;;;13.79;96.16;99342.00;4953748;28;20045;-48
2023/03/23 07:20:11;;;;;;;1.00;0.70;;;;;;;13.73;96.95;99340.13;4952236;28;20042;-50
2023/03/23 07:22:38;;;;;;;0.82;0.60;;;;;;;13.99;96.72;99334.75;4959763;28;20043;-49
2023/03/23 07:25:11;;;;;;;0.63;0.47;;;;;;;14.02;95.37;99347.44;4967279;28;20106;-48
2023/03/23 07:31:32;;;;;;;0.70;0.50;;;;;;;14.40;93.88;99356.19;4946861;28;20042;-49
2023/03/23 07:33:58;;;;;;;0.98;0.77;;;;;;;14.39;93.89;99354.63;4965543;28;20062;-48
2023/03/23 07:36:31;;;;;;;0.98;0.60;;;;;;;14.57;93.86;99355.13;4948307;28;20054;-47
2023/03/23 07:38:58;;;;;;;0.47;0.47;;;;;;;14.76;92.25;99359.81;4950734;28;20453;-48
2023/03/23 07:41:24;;;;;;;0.52;0.40;;;;;;;14.91;92.71;99360.31;4952524;28;20031;-48
2023/03/23 07:43:51;;;;;;;1.90;0.88;;;;;;;15.18;91.12;99367.16;4946428;28;20031;-51
2023/03/23 07:46:28;;;;;;;0.80;0.70;;;;;;;15.15;90.38;99368.00;4968685;28;20316;-54
2023/03/23 07:49:14;;;;;;;0.88;0.40;;;;;;;15.15;89.35;99372.66;5039258;28;20033;-51
2023/03/23 07:55:17;;;;;;;0.50;0.30;;;;;;;14.93;89.43;99374.22;5033236;28;19923;-48
2023/03/23 07:58:18;;;;;;;0.52;0.45;;;;;;;14.83;89.51;99370.50;5025112;28;20049;-50
2023/03/23 08:00:48;;;;;;;0.43;0.38;;;;;;;14.69;89.80;99365.34;5028087;28;20044;-48
2023/03/23 08:03:16;;;;;;;0.70;0.38;;;;;;;14.81;89.33;99374.81;5031581;28;20108;-49
2023/03/23 08:05:58;;;;;;;0.80;0.50;;;;;;;14.80;89.01;99373.28;5045641;28;20104;-50
2023/03/23 08:08:42;;;;;;;0.57;0.55;;;;;;;14.65;90.77;99375.50;5047583;28;20564;-49
2023/03/23 08:11:30;;;;;;;1.38;0.85;;;;;;;14.75;90.38;99365.66;5045623;28;20044;-49
2023/03/23 08:14:34;;;;;;;0.70;0.60;;;;;;;14.77;89.83;99361.31;5020440;28;20404;-53
2023/03/23 08:17:23;;;;;;;0.57;0.43;;;;;;;14.78;90.13;99373.72;5027868;28;20037;-53
2023/03/23 08:20:13;;;;;;;0.32;0.32;;;;;;;14.81;89.51;99372.09;5029901;28;20029;-50
2023/03/23 08:22:58;;;;;;;0.40;0.30;;;;;;;14.74;89.92;99372.25;5037629;28;20070;-50
2023/03/23 08:25:55;;;;;;;1.00;0.75;;;;;;;14.65;90.94;99374.72;5025721;28;20045;-49
2023/03/23 08:28:43;;;;;;;0.70;0.40;;;;;;;14.68;91.52;99374.66;5030049;28;20443;-49
2023/03/23 08:31:35;;;;;;;0.80;0.60;;;;;;;14.66;92.13;99387.09;5013910;28;20377;-52
2023/03/23 08:34:11;;;;;;;0.30;0.30;;;;;;;14.36;94.10;99393.41;5025191;28;20488;-48
2023/03/23 08:36:52;;;;;;;0.85;0.47;;;;;;;14.35;94.55;99405.38;5022878;28;20059;-47
2023/03/23 08:39:42;;;;;;;0.50;0.47;;;;;;;14.33;94.96;99392.25;5037591;28;20048;-48
2023/03/23 08:42:31;;;;;;;1.30;0.88;;;;;;;14.43;95.39;99404.88;5028221;28;20049;-52
2023/03/23 08:45:18;;;;;;;0.68;0.50;;;;;;;14.38;95.58;99408.03;5037850;28;20048;-52
2023/03/23 08:48:16;;;;;;;1.00;0.60;;;;;;;14.07;98.61;99408.50;5005413;28;20071;-54
2023/03/23 08:51:00;;;;;;;1.38;0.50;;;;;;;14.20;97.85;99407.53;5044121;28;20041;-48
2023/03/23 08:53:49;;;;;;;0.82;0.60;;;;;;;13.97;98.85;99396.66;5028749;28;20040;-48
2023/03/23 08:56:46;;;;;;;0.50;0.45;;;;;;;14.11;98.64;99392.97;5037776;28;20033;-48
2023/03/23 08:59:23;;;;;;;0.75;0.50;;;;;;;14.22;96.33;99399.75;5044082;28;20060;-48
2023/03/23 09:02:01;;;;;;;0.98;0.65;;;;;;;14.01;96.82;99400.06;5024982;28;20534;-50
2023/03/23 09:04:44;;;;;;;0.45;0.45;;;;;;;14.05;96.20;99416.25;5023074;28;20040;-48
2023/03/23 09:07:33;;;;;;;;;;;;;;;14.24;95.29;99410.94;5001120;28;20037;-47
2023/03/23 09:09:58;;;;;;;0.32;0.32;;;;;;;14.13;95.38;99412.28;5028783;28;19927;-50
2023/03/23 09:12:24;;;;;;;0.77;0.45;;;;;;;14.27;92.01;99412.06;5041435;28;20089;-50
2023/03/23 09:14:50;;;;;;;0.40;0.20;;;;;;;13.99;93.55;99405.13;5043790;28;20027;-49
2023/03/23 09:17:15;;;;;;;0.95;0.43;;;;;;;14.18;92.64;99412.59;5034856;28;20029;-50
2023/03/23 09:19:41;;;;;;;0.10;0.10;;;;;;;14.22;91.17;99417.94;5046896;28;20024;-54
2023/03/23 09:22:07;;;;;;;0.40;0.40;;;;;;;14.24;92.04;99416.38;5047148;28;20025;-52
2023/03/23 09:24:33;;;;;;;0.30;0.30;;;;;;;14.36;90.65;99421.22;5038961;28;20041;-50
2023/03/23 09:26:58;;;;;;;0.30;0.30;;;;;;;14.40;90.52;99424.66;5038236;28;20025;-53
2023/03/23 09:29:26;;;;;;;0.52;0.20;;;;;;;14.30;89.12;99430.25;5041987;28;20445;-51
2023/03/23 09:31:52;;;;;;;0.20;0.20;;;;;;;14.51;88.20;99442.69;5043797;28;20398;-50
2023/03/23 09:34:18;;;;;;;0.20;0.20;;;;;;;14.59;87.55;99444.13;5040235;28;20117;-51
2023/03/23 09:36:44;;;;;;;0.13;0.13;;;;;;;14.69;86.30;99446.63;5039403;28;20100;-52
2023/03/23 09:39:11;;;;;;;0.20;0.10;;;;;;;14.62;86.75;99451.41;5038383;28;20033;-47
2023/03/23 09:42:05;;;;;;;0.10;0.10;;;;;;;14.47;87.77;99461.72;5038911;28;20025;-46
2023/03/23 09:45:07;;;;;;;0.10;0.10;;;;;;;14.48;87.16;99462.47;5045687;28;20025;-49
2023/03/23 09:47:48;;;;;;;0.77;0.47;;;;;;;14.52;87.26;99450.41;5043101;28;20032;-47
2023/03/23 09:50:18;;;;;;;0.40;0.20;;;;;;;14.48;88.04;99462.47;5042526;28;20347;-47
2023/03/23 09:52:52;;;;;;;0.10;0.10;;;;;;;14.51;87.89;99462.44;5036915;28;20057;-51
2023/03/23 09:55:20;;;;;;;1.55;0.20;;;;;;;14.85;86.52;99467.69;5046420;28;20036;-48
2023/03/23 09:58:07;;;;;;;0.73;0.17;;;;;;;14.73;85.54;99458.19;5045215;28;20100;-47
2023/03/23 10:00:41;;;;;;;0.10;0.10;;;;;;;14.84;85.84;99477.78;5028495;28;20033;-48
2023/03/23 10:03:18;;;;;;;0.75;0.32;;;;;;;15.05;83.71;99472.00;5044418;28;20539;-49
2023/03/23 10:05:55;;;;;;;0.65;0.40;;;;;;;15.03;83.46;99470.88;5045048;28;20083;-47
2023/03/23 10:08:24;;;;;;;0.10;0.10;;;;;;;14.94;84.12;99486.91;5046738;28;20033;-47
2023/03/23 10:10:57;;;;;;;1.25;0.30;;;;;;;15.13;83.94;99480.78;5042282;28;20549;-47
2023/03/23 10:13:49;;;;;;;0.93;0.38;;;;;;;15.15;84.34;99489.28;5046836;28;20032;-48
2023/03/23 10:16:41;;;;;;;0.20;0.00;;;;;;;15.11;84.05;99478.47;5047957;28;20132;-47
2023/03/23 10:19:11;;;;;;;0.17;0.17;;;;;;;15.00;85.49;99480.59;5039148;28;20037;-49
2023/03/23 10:21:42;;;;;;;0.10;0.00;;;;;;;15.17;84.07;99486.91;5048171;28;20029;-47
2023/03/23 10:24:15;;;;;;;0.20;0.20;;;;;;;15.46;82.02;99493.41;5042775;28;20029;-48
2023/03/23 10:27:10;;;;;;;0.25;0.25;;;;;;;15.62;80.97;99495.44;5045037;28;20037;-48
2023/03/23 10:29:39;;;;;;;0.22;0.10;;;;;;;15.54;81.34;99499.44;5043530;28;20029;-47
2023/03/23 10:32:14;;;;;;;0.52;0.28;;;;;;;15.59;80.27;99496.25;5046259;28;20032;-47
2023/03/23 10:34:57;;;;;;;0.00;0.00;;;;;;;15.51;79.80;99498.31;5033238;28;20068;-47
2023/03/23 10:37:28;;;;;;;0.30;0.20;;;;;;;15.46;80.67;99514.31;5025090;28;20041;-48
2023/03/23 10:40:03;;;;;;;0.03;0.03;;;;;;;15.16;82.58;99499.69;5026215;28;20048;-48
2023/03/23 10:42:32;;;;;;;0.28;0.13;;;;;;;15.52;81.27;99513.44;5021547;28;20341;-47
2023/03/23 10:45:00;;;;;;;3.47;0.25;;;;;;;15.64;79.37;99498.50;5022043;28;20017;-48
2023/03/23 10:47:28;;;;;;;0.28;0.25;;;;;;;15.69;78.79;99501.47;5025019;28;20041;-49
2023/03/23 10:49:58;;;;;;;0.45;0.20;;;;;;;15.61;79.24;99519.09;5028341;28;20122;-50
2023/03/23 10:52:34;;;;;;;0.40;0.40;;;;;;;15.68;78.62;99532.50;5022319;28;20029;-47
2023/03/23 10:55:23;;;;;;;2.53;0.68;;;;;;;15.82;77.89;99520.63;5022099;28;20041;-62
2023/03/23 10:58:03;;;;;;;2.38;0.50;;;;;;;15.75;78.51;99526.97;5042367;28;20064;-50
2023/03/23 11:00:30;;;;;;;6.32;0.30;;;;;;;15.76;79.30;99525.75;5044316;28;20441;-49
2023/03/23 11:03:07;;;;;;;1.38;0.65;;;;;;;15.75;79.35;99523.47;5033697;28;20025;-49
2023/03/23 11:05:37;;;;;;;1.23;0.13;;;;;;;15.68;79.70;99535.22;5042289;28;20115;-47
2023/03/23 11:08:11;;;;;;;1.17;0.40;;;;;;;15.62;79.95;99528.75;5026615;28;20061;-50
2023/03/23 11:10:47;;;;;;;0.30;0.20;;;;;;;15.76;78.83;99527.72;5047533;28;20725;-48
2023/03/23 11:13:15;;;;;;;0.10;0.10;;;;;;;15.66;79.69;99524.00;5047161;28;20037;-48
2023/03/23 11:15:44;;;;;;;0.13;0.13;;;;;;;15.58;79.85;99528.03;5042782;28;20487;-47
2023/03/23 11:18:20;;;;;;;0.00;0.00;;;;;;;15.56;80.14;99526.94;5027640;28;20032;-48
2023/03/23 11:20:50;;;;;;;2.13;0.40;;;;;;;15.32;81.33;99518.03;5051051;28;20039;-50
2023/03/23 11:23:26;;;;;;;0.75;0.15;;;;;;;15.54;79.99;99532.03;5052037;28;20028;-48
2023/03/23 11:25:57;;;;;;;0.28;0.20;;;;;;;15.66;80.65;99531.41;5047927;28;20055;-47
2023/03/23 11:28:31;;;;;;;0.90;0.28;;;;;;;15.93;79.31;99540.19;5045527;28;20027;-48
2023/03/23 11:30:59;;;;;;;0.03;0.03;;;;;;;15.88;79.04;99530.59;5042361;28;20040;-48
2023/03/23 11:33:28;;;;;;;1.65;0.20;;;;;;;15.75;80.23;99537.81;5027950;28;21162;-47
2023/03/23 11:35:54;;;;;;;3.80;0.73;;;;;;;15.63;81.57;99527.56;5022026;28;20052;-50
2023/03/23 11:38:23;;;;;;;4.57;1.20;;;;;;;15.87;80.24;99544.59;5033336;28;20029;-49
2023/03/23 11:40:52;;;;;;;2.22;0.30;;;;;;;15.85;79.98;99531.41;5036067;28;20468;-49
2023/03/23 11:43:25;;;;;;;0.50;0.50;;;;;;;15.94;79.20;99539.78;5043029;28;20040;-49
2023/03/23 11:46:00;;;;;;;0.30;0.30;;;;;;;15.89;79.97;99539.50;5035962;28;20040;-49
2023/03/23 11:48:54;;;;;;;1.08;0.10;;;;;;;15.99;79.92;99543.94;5028643;28;20042;-50
2023/03/23 11:51:27;;;;;;;0.63;0.40;;;;;;;16.05;79.40;99550.41;5040743;28;20040;-50
2023/03/23 11:53:52;;;;;;;0.28;0.20;;;;;;;16.04;79.35;99548.91;5043738;28;20472;-47
2023/03/23 11:56:39;;;;;;;0.55;0.30;;;;;;;16.20;79.26;99551.69;5039855;28;20032;-49
2023/03/23 11:59:14;;;;;;;4.55;0.93;;;;;;;16.28;79.12;99544.91;5040028;28;20032;-48
2023/03/23 12:01:45;;;;;;;1.10;0.32;;;;;;;16.36;79.57;99546.28;5041842;28;20457;-51
2023/03/23 12:04:35;;;;;;;3.17;0.40;;;;;;;16.34;79.89;99556.81;5037456;28;20102;-47
2023/03/23 12:07:38;;;;;;;0.90;0.17;;;;;;;16.17;78.43;99568.81;5041290;28;20033;-50
2023/03/23 12:10:42;;;;;;;0.45;0.40;;;;;;;15.96;79.87;99567.28;5023560;28;20024;-46